Nags Head, NC

10:08 AM EDT on April 29, 2017 (GMT -0400)
South Ridge | | Change Station

Elev 10 ft 35.95 °N, 75.63 °W | Updated 5 seconds ago

Mostly Cloudy
Mostly Cloudy
81.4 °F
Feels Like 86 °F
N
4.0
Wind Variable Wind from NNW
Gusts 12.0 mph

Today
High -- | Low -- °F
--% Chance of Precip.
Yesterday
High -- | Low -- °F
Precip. -- in
Pressure 30.20 in
Visibility 10.0 miles
Clouds Scattered Clouds 1800 ft
Heat Index 86 °F
Dew Point 73 °F
Humidity 75%
Rainfall 0.00 in
Snow Depth Not available.
6:11 AM 7:48 PM
Waxing Crescent, 14% visible
METAR KFFA 291355Z AUTO 25010G15KT 10SM SCT018 25/21 A3020 RMK AO2 T02540208
Pressure 30.20 in
Visibility 10.0 miles
Clouds Scattered Clouds 1800 ft
Heat Index 86 °F
Dew Point 73 °F
Humidity 75%
Rainfall 0.00 in
Snow Depth Not available.
6:11 AM 7:48 PM
Waxing Crescent, 14% visible
METAR KFFA 291355Z AUTO 25010G15KT 10SM SCT018 25/21 A3020 RMK AO2 T02540208

Get Severe Weather Alerts

Thanks for signing up!

Be on the lookout for a verification email in your inbox.

You'll start receiving the daily forecast at 8 AM.

×

10-Day Weather Forecast

Almanac

Astronomy

Apr. 29, 2017 Rise Set
Actual Time
Civil Twilight
Nautical Twilight
Astronomical Twilight
Moon
Length of Visible Light
Length of Day
Tomorrow will be .
, % of the Moon is Illuminated

Today's Extremes

State Highs State Lows

Community

WunderPhotos

WunderBlog® & News

Nearby

Air Quality

  Air Quality AQ Index Pollutant
Not available.

Snow Depth

Station Depth Elevation

Earthquake Activity

City Distance Mag. Time & Date
Minimum magnitude displayed is 2.5.

Coastal Water Temperatures

Place Temperature

Stations

Nearby Weather Stations

Station Location Temp. Windchill Dew Point Humidity Wind Precip. Elev Updated Type
                   

Watches & Warnings

There are currently no watches in effect.